Time;durP1;ratioP1;P1;durP2;ratioP2;P2;SDS_P1;SDS_P2;PMS_P1;PMS_P2;Temp;Humidity;BMP_temperature;BMP_pressure;BME280_temperature;BME280_humidity;BME280_pressure;Samples;Min_cycle;Max_cycle;Signal;HPM_P1;HPM_P2
2021/12/07 00:00:53;;;;;;;;;;;6.40;99.90;;;;;;5097278;28;19908;-79
2021/12/07 00:03:20;;;;;;;;;;;6.40;99.90;;;;;;5097120;28;20364;-79
2021/12/07 00:05:47;;;;;;;;;;;6.40;99.90;;;;;;5096924;28;19912;-79
2021/12/07 00:08:13;;;;;;;;;;;6.50;99.90;;;;;;5078623;28;20011;-78
2021/12/07 00:10:38;;;;;;;;;;;6.50;99.90;;;;;;5078291;28;19981;-79
2021/12/07 00:13:05;;;;;;;;;;;6.50;99.90;;;;;;5096671;28;19912;-78
2021/12/07 00:15:31;;;;;;;;;;;6.40;99.90;;;;;;5097168;28;19973;-79
2021/12/07 00:17:57;;;;;;;;;;;6.40;99.90;;;;;;5096672;28;20368;-79
2021/12/07 00:20:23;;;;;;;;;;;6.30;99.90;;;;;;5096634;28;19954;-79
2021/12/07 00:22:51;;;;;;;;;;;6.30;99.90;;;;;;5096337;28;19908;-79
2021/12/07 00:25:17;;;;;;;;;;;6.20;99.90;;;;;;5096511;28;19909;-79
2021/12/07 00:27:42;;;;;;;;;;;6.30;99.90;;;;;;5096410;28;19919;-79
2021/12/07 00:30:09;;;;;;;;;;;6.30;99.90;;;;;;5095521;28;20296;-78
2021/12/07 00:32:43;;;;;;;;;;;6.10;99.90;;;;;;5096406;28;19919;-78
2021/12/07 00:37:55;;;;;;;;;;;6.00;99.90;;;;;;5096011;28;19915;-79
2021/12/07 00:40:21;;;;;;;;;;;6.00;99.90;;;;;;5096139;28;19908;-79
2021/12/07 00:42:47;;;;;;;;;;;6.00;99.90;;;;;;5095945;28;19944;-78
2021/12/07 00:45:15;;;;;;;;;;;5.80;99.90;;;;;;5095933;28;19958;-78
2021/12/07 00:47:41;;;;;;;;;;;5.80;99.90;;;;;;5096261;28;19954;-78
2021/12/07 00:50:08;;;;;;;;;;;5.80;99.90;;;;;;5096182;28;19951;-78
2021/12/07 00:52:33;;;;;;;;;;;5.80;99.90;;;;;;5096051;28;19909;-79
2021/12/07 00:54:59;;;;;;;;;;;5.80;99.90;;;;;;5095792;28;19974;-79
2021/12/07 00:57:25;;;;;;;;;;;5.80;99.90;;;;;;5095936;28;19908;-78
2021/12/07 00:59:51;;;;;;;;;;;5.80;99.90;;;;;;5095754;28;20283;-78
2021/12/07 01:02:16;;;;;;;;;;;5.80;99.90;;;;;;5077467;28;20359;-79
2021/12/07 01:04:51;;;;;;;;;;;5.80;99.90;;;;;;5077431;28;19908;-79
2021/12/07 01:07:36;;;;;;;;;;;5.70;99.90;;;;;;5077057;28;19919;-79
2021/12/07 01:26:27;;;;;;;;;;;5.80;99.90;;;;;;5094864;28;19997;-78
2021/12/07 01:28:52;;;;;;;;;;;5.70;99.90;;;;;;5095115;28;19943;-79
2021/12/07 01:31:29;;;;;;;;;;;5.80;99.90;;;;;;5095119;28;20420;-78
2021/12/07 01:34:37;;;;;;;;;;;5.70;99.90;;;;;;5095106;28;20399;-78
2021/12/07 01:37:29;;;;;;;;;;;5.60;99.90;;;;;;5094746;28;19919;-78
2021/12/07 01:48:08;;;;;;;;;;;5.50;99.90;;;;;;5094664;28;19916;-78
2021/12/07 02:01:08;;;;;;;;;;;5.50;99.90;;;;;;5094094;28;19939;-79
2021/12/07 02:03:34;;;;;;;;;;;5.50;99.90;;;;;;5094113;28;19908;-79
2021/12/07 02:06:00;;;;;;;;;;;5.60;99.90;;;;;;5095045;28;19908;-78
2021/12/07 02:08:25;;;;;;;;;;;5.50;99.90;;;;;;5094328;28;19912;-79
2021/12/07 02:10:55;;;;;;;;;;;5.50;99.90;;;;;;5094780;28;20464;-79
2021/12/07 02:15:56;;;;;;;;;;;5.40;99.90;;;;;;5093954;28;19908;-78
2021/12/07 02:18:22;;;;;;;;;;;5.40;99.90;;;;;;5094265;28;19951;-78
2021/12/07 02:20:47;;;;;;;;;;;5.40;99.90;;;;;;5094315;28;19912;-77
2021/12/07 02:23:13;;;;;;;;;;;5.40;99.90;;;;;;5075997;28;19908;-78
2021/12/07 02:25:39;;;;;;;;;;;5.60;99.90;;;;;;5094327;28;19989;-78
2021/12/07 02:28:11;;;;;;;;;;;5.80;99.90;;;;;;5094159;28;20287;-79
2021/12/07 02:30:37;;;;;;;;;;;5.80;99.90;;;;;;5094542;28;20429;-79
2021/12/07 02:33:03;;;;;;;;;;;5.80;99.90;;;;;;5094211;28;19912;-78
2021/12/07 02:35:28;;;;;;;;;;;5.80;99.90;;;;;;5094057;28;19915;-78
2021/12/07 02:37:55;;;;;;;;;;;5.80;99.90;;;;;;5094119;28;19967;-78
2021/12/07 02:40:21;;;;;;;;;;;5.70;99.90;;;;;;5093938;28;19994;-79
2021/12/07 02:42:46;;;;;;;;;;;5.60;99.90;;;;;;5093994;28;19940;-79
2021/12/07 02:45:13;;;;;;;;;;;5.60;99.90;;;;;;5094079;28;20392;-79
2021/12/07 02:47:38;;;;;;;;;;;5.60;99.90;;;;;;5092702;28;19935;-78
2021/12/07 02:50:05;;;;;;;;;;;5.60;99.90;;;;;;5094178;28;20385;-79
2021/12/07 02:52:31;;;;;;;;;;;5.60;99.90;;;;;;5096073;28;19987;-78
2021/12/07 02:54:56;;;;;;;;;;;5.70;99.90;;;;;;5098114;28;20382;-79
2021/12/07 02:57:22;;;;;;;;;;;5.70;99.90;;;;;;5097998;28;19909;-79
2021/12/07 02:59:56;;;;;;;;;;;5.70;99.90;;;;;;5098127;28;20288;-79
2021/12/07 03:02:23;;;;;;;;;;;5.60;99.90;;;;;;5079548;28;19947;-78
2021/12/07 03:05:01;;;;;;;;;;;5.70;99.90;;;;;;5097963;28;19916;-78
2021/12/07 03:25:52;;;;;;;;;;;5.60;99.90;;;;;;5097511;28;20288;-79
2021/12/07 03:26:52;;;;;;;;;;;5.50;99.90;;;;;;5097303;28;20433;-78
2021/12/07 03:29:17;;;;;;;;;;;5.50;99.90;;;;;;5097942;28;19912;-79
2021/12/07 03:31:43;;;;;;;;;;;5.50;99.90;;;;;;5097387;28;19954;-79
2021/12/07 03:34:08;;;;;;;;;;;5.50;99.90;;;;;;5079200;28;19908;-79
2021/12/07 03:36:34;;;;;;;;;;;5.60;99.90;;;;;;5097674;28;19915;-79
2021/12/07 03:39:00;;;;;;;;;;;5.60;99.90;;;;;;5097276;28;19908;-79
2021/12/07 03:41:26;;;;;;;;;;;5.70;99.90;;;;;;5097763;28;19999;-79
2021/12/07 03:43:52;;;;;;;;;;;5.70;99.90;;;;;;5097164;28;19931;-79
2021/12/07 03:46:17;;;;;;;;;;;5.50;99.90;;;;;;5097409;28;19952;-79
2021/12/07 03:48:43;;;;;;;;;;;5.20;99.90;;;;;;5097070;28;20333;-79
2021/12/07 03:51:09;;;;;;;;;;;5.10;99.90;;;;;;5097018;28;19969;-79
2021/12/07 03:53:35;;;;;;;;;;;5.20;99.90;;;;;;5078760;28;19908;-79
2021/12/07 03:56:01;;;;;;;;;;;5.30;99.90;;;;;;5097167;28;19908;-79
2021/12/07 03:58:27;;;;;;;;;;;5.30;99.90;;;;;;5096805;28;19915;-79
2021/12/07 04:00:53;;;;;;;;;;;5.10;99.90;;;;;;5096893;28;20288;-79
2021/12/07 04:03:19;;;;;;;;;;;5.20;99.90;;;;;;5096084;28;19991;-79
2021/12/07 04:05:52;;;;;;;;;;;5.30;99.90;;;;;;5096692;28;19908;-79
2021/12/07 04:08:22;;;;;;;;;;;5.30;99.90;;;;;;5096641;28;20384;-79
2021/12/07 04:10:48;;;;;;;;;;;5.10;99.90;;;;;;5096405;28;19916;-78
2021/12/07 04:13:14;;;;;;;;;;;5.00;99.90;;;;;;5078458;28;19914;-79
2021/12/07 04:15:40;;;;;;;;;;;5.00;99.90;;;;;;5096517;28;20007;-79
2021/12/07 04:18:06;;;;;;;;;;;4.90;99.90;;;;;;5096842;28;19908;-79
2021/12/07 04:20:32;;;;;;;;;;;5.00;99.90;;;;;;5078218;28;20010;-79
2021/12/07 04:22:57;;;;;;;;;;;5.10;99.90;;;;;;5096452;28;19912;-79
2021/12/07 04:25:26;;;;;;;;;;;5.20;99.90;;;;;;5094993;28;19942;-79
2021/12/07 04:27:52;;;;;;;;;;;5.40;99.90;;;;;;5096392;28;20311;-79
2021/12/07 04:30:20;;;;;;;;;;;5.40;99.90;;;;;;5096291;28;19965;-77
2021/12/07 04:32:45;;;;;;;;;;;5.40;99.90;;;;;;5096374;28;19916;-79
2021/12/07 04:35:12;;;;;;;;;;;5.40;99.90;;;;;;5096151;28;19908;-79
2021/12/07 04:37:38;;;;;;;;;;;5.60;99.90;;;;;;5096171;28;19919;-78
2021/12/07 04:40:04;;;;;;;;;;;5.60;99.90;;;;;;5095943;28;19915;-79
2021/12/07 04:42:30;;;;;;;;;;;5.50;99.90;;;;;;5095975;28;19908;-79
2021/12/07 04:45:00;;;;;;;;;;;5.40;99.90;;;;;;5095911;28;19915;-79
2021/12/07 04:47:52;;;;;;;;;;;5.40;99.90;;;;;;5096009;28;19912;-79
2021/12/07 04:57:38;;;;;;;;;;;5.40;99.90;;;;;;5090551;28;20276;-78
2021/12/07 04:58:51;;;;;;;;;;;5.40;99.90;;;;;;5095509;28;20437;-78
2021/12/07 05:01:17;;;;;;;;;;;5.30;99.90;;;;;;5096067;28;19909;-78
2021/12/07 05:03:43;;;;;;;;;;;5.30;99.90;;;;;;5077455;28;19914;-79
2021/12/07 05:06:11;;;;;;;;;;;5.40;99.90;;;;;;5077513;28;20049;-79
2021/12/07 05:08:58;;;;;;;;;;;5.50;99.90;;;;;;5095361;28;20284;-78
2021/12/07 05:11:32;;;;;;;;;;;5.40;99.90;;;;;;5095362;28;19965;-78
2021/12/07 05:38:26;;;;;;;;;;;5.70;99.90;;;;;;5094836;28;19954;-78
2021/12/07 05:40:52;;;;;;;;;;;5.70;99.90;;;;;;5094647;28;20284;-78
2021/12/07 05:43:17;;;;;;;;;;;5.70;99.90;;;;;;5076751;28;19912;-79
2021/12/07 05:45:43;;;;;;;;;;;5.80;99.90;;;;;;5094761;28;20052;-79
2021/12/07 05:48:09;;;;;;;;;;;5.70;99.90;;;;;;5076634;28;19912;-80
2021/12/07 05:50:36;;;;;;;;;;;5.70;99.90;;;;;;5094998;28;20061;-78
2021/12/07 05:53:02;;;;;;;;;;;5.70;99.90;;;;;;5093275;28;20276;-78
2021/12/07 05:55:28;;;;;;;;;;;5.90;99.90;;;;;;5094423;28;19912;-79
2021/12/07 05:57:54;;;;;;;;;;;6.20;99.90;;;;;;5076195;28;19908;-78
2021/12/07 06:00:26;;;;;;;;;;;6.30;99.90;;;;;;5094528;28;19909;-78
2021/12/07 06:02:53;;;;;;;;;;;6.50;99.90;;;;;;5075974;28;19943;-78
2021/12/07 06:05:18;;;;;;;;;;;6.60;99.90;;;;;;5076300;28;19915;-79
2021/12/07 06:07:44;;;;;;;;;;;6.60;99.90;;;;;;5094216;28;19922;-79
2021/12/07 06:10:10;;;;;;;;;;;6.70;99.90;;;;;;5094678;28;19954;-78
2021/12/07 06:12:36;;;;;;;;;;;6.70;99.90;;;;;;5093870;28;20444;-77
2021/12/07 06:15:02;;;;;;;;;;;6.70;99.90;;;;;;5093115;28;19947;-79
2021/12/07 06:17:27;;;;;;;;;;;6.70;99.90;;;;;;5094215;28;19915;-79
2021/12/07 06:19:53;;;;;;;;;;;6.70;99.90;;;;;;5094184;28;20110;-79
2021/12/07 06:22:18;;;;;;;;;;;6.70;99.90;;;;;;5094187;28;19916;-79
2021/12/07 06:24:44;;;;;;;;;;;6.70;99.90;;;;;;5094397;28;19960;-78
2021/12/07 06:27:10;;;;;;;;;;;6.70;99.90;;;;;;5093383;28;19908;-78
2021/12/07 06:29:35;;;;;;;;;;;6.70;99.90;;;;;;5075669;28;20348;-79
2021/12/07 06:32:01;;;;;;;;;;;6.60;99.90;;;;;;5093919;28;19915;-78
2021/12/07 06:34:27;;;;;;;;;;;6.60;99.90;;;;;;5094082;28;19922;-78
2021/12/07 06:36:52;;;;;;;;;;;6.50;99.90;;;;;;5093932;28;19908;-79
2021/12/07 06:39:18;;;;;;;;;;;6.50;99.90;;;;;;5093793;28;20310;-79
2021/12/07 06:41:44;;;;;;;;;;;6.50;99.90;;;;;;5093791;28;19912;-79
2021/12/07 06:44:10;;;;;;;;;;;6.50;99.90;;;;;;5093841;28;19909;-78
2021/12/07 06:46:35;;;;;;;;;;;6.40;99.90;;;;;;5075637;28;19915;-79
2021/12/07 06:49:02;;;;;;;;;;;6.30;99.90;;;;;;5093673;28;20300;-79
2021/12/07 06:51:28;;;;;;;;;;;6.30;99.90;;;;;;5093688;28;19994;-78
2021/12/07 06:53:54;;;;;;;;;;;6.30;99.90;;;;;;5093875;28;19988;-79
2021/12/07 06:56:19;;;;;;;;;;;6.30;99.90;;;;;;5093618;28;19908;-79
2021/12/07 06:58:45;;;;;;;;;;;6.30;99.90;;;;;;5093606;28;19962;-79
2021/12/07 07:01:11;;;;;;;;;;;6.40;99.90;;;;;;5093551;28;19908;-78
2021/12/07 07:03:38;;;;;;;;;;;6.40;99.90;;;;;;5093688;28;20393;-78
2021/12/07 07:06:03;;;;;;;;;;;6.50;99.90;;;;;;5092231;28;19954;-78
2021/12/07 07:08:29;;;;;;;;;;;6.50;99.90;;;;;;5093686;28;19969;-78
2021/12/07 07:10:55;;;;;;;;;;;6.60;99.90;;;;;;5093357;28;19916;-78
2021/12/07 07:13:21;;;;;;;;;;;6.60;99.90;;;;;;5093770;28;19912;-78
2021/12/07 07:15:46;;;;;;;;;;;6.60;99.90;;;;;;5075421;28;19908;-79
2021/12/07 07:18:12;;;;;;;;;;;6.60;99.90;;;;;;5093597;28;19908;-79
2021/12/07 07:20:38;;;;;;;;;;;6.60;99.90;;;;;;5093533;28;19912;-79
2021/12/07 07:23:04;;;;;;;;;;;6.60;99.90;;;;;;5093458;28;20390;-78
2021/12/07 07:25:29;;;;;;;;;;;6.60;99.90;;;;;;5093444;28;19908;-79
2021/12/07 07:27:55;;;;;;;;;;;6.70;99.90;;;;;;5075278;28;19991;-79
2021/12/07 07:30:21;;;;;;;;;;;6.60;99.90;;;;;;5075178;28;20314;-79
2021/12/07 07:32:47;;;;;;;;;;;6.70;99.90;;;;;;5093483;28;19908;-79
2021/12/07 07:35:13;;;;;;;;;;;6.70;99.90;;;;;;5075237;28;19944;-79
2021/12/07 07:37:39;;;;;;;;;;;6.80;99.90;;;;;;5093643;28;19908;-78
2021/12/07 07:40:07;;;;;;;;;;;6.90;99.90;;;;;;5097202;28;20432;-78
2021/12/07 07:42:33;;;;;;;;;;;7.10;99.90;;;;;;5096823;28;19947;-78
2021/12/07 07:44:58;;;;;;;;;;;7.20;99.90;;;;;;5096895;28;19912;-79
2021/12/07 07:47:24;;;;;;;;;;;7.20;99.90;;;;;;5097333;28;20349;-78
2021/12/07 07:49:50;;;;;;;;;;;7.30;99.90;;;;;;5096711;28;19908;-78
2021/12/07 07:52:15;;;;;;;;;;;7.40;99.90;;;;;;5097047;28;20280;-78
2021/12/07 07:54:41;;;;;;;;;;;7.40;99.90;;;;;;5078710;28;20277;-78
2021/12/07 07:57:07;;;;;;;;;;;7.50;99.90;;;;;;5096969;28;19989;-79
2021/12/07 07:59:32;;;;;;;;;;;7.50;99.90;;;;;;5095426;28;19976;-79
2021/12/07 08:01:58;;;;;;;;;;;7.50;99.90;;;;;;5096841;28;19912;-78
2021/12/07 08:04:23;;;;;;;;;;;7.60;99.90;;;;;;5096595;28;19908;-78
2021/12/07 08:06:49;;;;;;;;;;;7.60;99.90;;;;;;5096422;28;19908;-79
2021/12/07 08:09:15;;;;;;;;;;;7.70;99.90;;;;;;5096674;28;19912;-79
2021/12/07 08:11:41;;;;;;;;;;;7.70;99.90;;;;;;5096175;28;19963;-77
2021/12/07 08:14:06;;;;;;;;;;;7.80;99.90;;;;;;5096293;28;20402;-78
2021/12/07 08:16:33;;;;;;;;;;;7.80;99.90;;;;;;5096235;28;19970;-78
2021/12/07 08:18:59;;;;;;;;;;;7.90;99.90;;;;;;5096170;28;20007;-79
2021/12/07 08:21:24;;;;;;;;;;;8.00;99.90;;;;;;5096716;28;19953;-78
2021/12/07 08:23:50;;;;;;;;;;;8.00;99.90;;;;;;5096100;28;19960;-78
2021/12/07 08:26:22;;;;;;;;;;;8.00;99.90;;;;;;5096050;28;20283;-78
2021/12/07 08:28:49;;;;;;;;;;;8.00;99.90;;;;;;5096836;28;19923;-78
2021/12/07 08:31:15;;;;;;;;;;;8.20;99.90;;;;;;5096061;28;20277;-77
2021/12/07 08:33:40;;;;;;;;;;;8.20;99.90;;;;;;5077743;28;19908;-78
2021/12/07 08:36:06;;;;;;;;;;;8.30;99.90;;;;;;5095903;28;19908;-79
2021/12/07 08:38:32;;;;;;;;;;;8.30;99.90;;;;;;5095846;28;19953;-79
2021/12/07 08:40:58;;;;;;;;;;;8.40;99.90;;;;;;5077495;28;19912;-78
2021/12/07 08:43:25;;;;;;;;;;;8.40;99.90;;;;;;5095788;28;20391;-77
2021/12/07 08:45:52;;;;;;;;;;;8.50;99.90;;;;;;5095981;28;19999;-79
2021/12/07 08:48:18;;;;;;;;;;;8.50;99.90;;;;;;5095910;28;19920;-78
2021/12/07 08:50:44;;;;;;;;;;;8.60;99.90;;;;;;5095091;28;19922;-78
2021/12/07 08:53:12;;;;;;;;;;;8.70;99.90;;;;;;5095791;28;19912;-78
2021/12/07 09:01:07;;;;;;;;;;;8.80;99.90;;;;;;5095820;28;19962;-78
2021/12/07 09:03:33;;;;;;;;;;;8.80;99.90;;;;;;5095788;28;19908;-78
2021/12/07 09:05:58;;;;;;;;;;;8.90;99.90;;;;;;5095349;28;19915;-78
2021/12/07 09:08:24;;;;;;;;;;;9.00;99.90;;;;;;5095487;28;19916;-79
2021/12/07 09:10:50;;;;;;;;;;;9.10;99.90;;;;;;5095008;28;20275;-78
2021/12/07 09:13:16;;;;;;;;;;;9.20;99.90;;;;;;5095482;28;19908;-79
2021/12/07 09:15:42;;;;;;;;;;;9.20;99.90;;;;;;5076876;28;20394;-79
2021/12/07 09:18:07;;;;;;;;;;;9.30;99.90;;;;;;5094925;28;19995;-79
2021/12/07 09:20:33;;;;;;;;;;;9.30;99.90;;;;;;5095354;28;19908;-80
2021/12/07 09:22:59;;;;;;;;;;;9.40;99.90;;;;;;5095281;28;19908;-79
2021/12/07 09:25:25;;;;;;;;;;;9.50;99.90;;;;;;5095663;28;19954;-79
2021/12/07 09:27:51;;;;;;;;;;;9.50;99.90;;;;;;5076476;28;20300;-79
2021/12/07 09:30:18;;;;;;;;;;;9.50;99.90;;;;;;5094819;28;19909;-79
2021/12/07 09:32:44;;;;;;;;;;;9.50;99.90;;;;;;5095017;28;19913;-79
2021/12/07 09:35:10;;;;;;;;;;;9.50;99.90;;;;;;5094706;28;20003;-80
2021/12/07 09:37:36;;;;;;;;;;;9.50;99.90;;;;;;5094858;28;20391;-81
2021/12/07 09:40:04;;;;;;;;;;;9.60;99.90;;;;;;5079145;28;19912;-80
2021/12/07 09:42:30;;;;;;;;;;;9.50;99.90;;;;;;5074097;28;19962;-80
2021/12/07 09:44:55;;;;;;;;;;;9.50;99.90;;;;;;5074464;28;19968;-79
2021/12/07 09:47:21;;;;;;;;;;;9.50;99.90;;;;;;5074082;28;19908;-79
2021/12/07 09:49:47;;;;;;;;;;;9.50;99.90;;;;;;5074169;28;20312;-80
2021/12/07 09:52:12;;;;;;;;;;;9.50;99.90;;;;;;5074182;28;19916;-80
2021/12/07 09:54:38;;;;;;;;;;;9.50;99.90;;;;;;5073998;28;20288;-79
2021/12/07 09:57:04;;;;;;;;;;;9.50;99.90;;;;;;5074540;28;19958;-80
2021/12/07 09:59:30;;;;;;;;;;;9.60;99.90;;;;;;5074012;28;19923;-79
2021/12/07 10:01:56;;;;;;;;;;;9.60;99.90;;;;;;5073477;28;19908;-79
2021/12/07 10:04:27;;;;;;;;;;;9.60;99.90;;;;;;5056077;28;19909;-78
2021/12/07 10:06:53;;;;;;;;;;;9.50;99.90;;;;;;5074272;28;20006;-81
2021/12/07 10:09:19;;;;;;;;;;;9.60;99.90;;;;;;5073838;28;19913;-79
2021/12/07 10:11:45;;;;;;;;;;;9.70;99.90;;;;;;5073638;28;20372;-81
2021/12/07 10:14:10;;;;;;;;;;;9.80;99.90;;;;;;5074110;28;19916;-81
2021/12/07 10:16:42;;;;;;;;;;;9.80;99.90;;;;;;5073796;28;20001;-82
2021/12/07 10:19:08;;;;;;;;;;;9.80;99.90;;;;;;5074011;28;19927;-81
2021/12/07 10:21:39;;;;;;;;;;;9.90;99.90;;;;;;5073733;28;20316;-80
2021/12/07 10:24:09;;;;;;;;;;;10.00;99.90;;;;;;5073823;28;19909;-82
2021/12/07 10:26:40;;;;;;;;;;;10.00;99.90;;;;;;5055707;28;20388;-81
2021/12/07 10:29:08;;;;;;;;;;;10.10;99.90;;;;;;5073552;28;20026;-82
2021/12/07 10:31:34;;;;;;;;;;;10.20;99.90;;;;;;5073949;28;19913;-80
2021/12/07 10:34:01;;;;;;;;;;;10.20;99.90;;;;;;5055574;28;19931;-83
2021/12/07 10:36:33;;;;;;;;;;;10.20;99.90;;;;;;5073441;28;19962;-79
2021/12/07 10:39:10;;;;;;;;;;;10.20;99.90;;;;;;5073594;28;20011;-80
2021/12/07 10:41:46;;;;;;;;;;;10.20;99.90;;;;;;5073879;28;20349;-80
2021/12/07 10:44:13;;;;;;;;;;;10.20;99.90;;;;;;5073815;28;19969;-81
2021/12/07 10:46:39;;;;;;;;;;;10.30;99.90;;;;;;5073508;28;19912;-83
2021/12/07 10:49:10;;;;;;;;;;;10.30;99.90;;;;;;5073469;28;19999;-81
2021/12/07 10:51:36;;;;;;;;;;;10.30;99.90;;;;;;5055474;28;19909;-84
2021/12/07 10:54:02;;;;;;;;;;;10.20;99.90;;;;;;5073607;28;19923;-81
2021/12/07 10:56:31;;;;;;;;;;;10.20;99.90;;;;;;5055338;28;19920;-81
2021/12/07 10:59:00;;;;;;;;;;;10.20;99.90;;;;;;5055364;28;19909;-82
2021/12/07 11:01:40;;;;;;;;;;;10.20;99.90;;;;;;5073351;28;20006;-83
2021/12/07 11:04:17;;;;;;;;;;;10.20;99.90;;;;;;5073372;28;20345;-83
2021/12/07 11:07:02;;;;;;;;;;;10.20;99.90;;;;;;5055366;28;19908;-82
2021/12/07 11:09:27;;;;;;;;;;;10.20;99.90;;;;;;5073184;28;20007;-82
2021/12/07 11:12:06;;;;;;;;;;;10.30;99.90;;;;;;5073094;28;19952;-81
2021/12/07 11:14:48;;;;;;;;;;;10.30;99.90;;;;;;5058668;28;20357;-82
2021/12/07 11:17:13;;;;;;;;;;;10.20;99.90;;;;;;5077400;28;20349;-81
2021/12/07 11:19:39;;;;;;;;;;;10.30;99.90;;;;;;5076995;28;19954;-81
2021/12/07 11:22:05;;;;;;;;;;;10.30;99.90;;;;;;5059065;28;20054;-82
2021/12/07 11:24:35;;;;;;;;;;;10.30;99.90;;;;;;5058915;28;19909;-82
2021/12/07 11:30:04;;;;;;;;;;;10.30;99.90;;;;;;5076603;28;19935;-81
2021/12/07 11:32:29;;;;;;;;;;;10.20;99.90;;;;;;5077270;28;19959;-82
2021/12/07 11:35:05;;;;;;;;;;;10.20;99.90;;;;;;5076672;28;20391;-82
2021/12/07 11:37:34;;;;;;;;;;;10.30;99.90;;;;;;5059536;28;20000;-81
2021/12/07 11:40:02;;;;;;;;;;;10.30;99.90;;;;;;5058130;28;19920;-80
2021/12/07 11:42:29;;;;;;;;;;;10.30;99.90;;;;;;5085016;28;19912;-81
2021/12/07 11:45:00;;;;;;;;;;;10.20;99.90;;;;;;5068188;28;19908;-81
2021/12/07 11:47:31;;;;;;;;;;;10.30;99.90;;;;;;5084712;28;19936;-82
2021/12/07 11:49:59;;;;;;;;;;;10.40;99.90;;;;;;5066852;28;19908;-84
2021/12/07 11:52:25;;;;;;;;;;;10.40;99.90;;;;;;5064015;28;19909;-83
2021/12/07 11:54:51;;;;;;;;;;;10.30;99.90;;;;;;5068585;28;19920;-83
2021/12/07 11:57:18;;;;;;;;;;;10.30;99.90;;;;;;5067317;28;19909;-82
2021/12/07 11:59:45;;;;;;;;;;;10.30;99.90;;;;;;5086803;28;20330;-82
2021/12/07 12:02:11;;;;;;;;;;;10.30;99.90;;;;;;5084980;28;19915;-83
2021/12/07 12:04:38;;;;;;;;;;;10.20;99.90;;;;;;5065895;28;19909;-83
2021/12/07 12:07:08;;;;;;;;;;;10.30;99.90;;;;;;5068439;28;19951;-85
2021/12/07 12:09:35;;;;;;;;;;;10.30;99.90;;;;;;5067037;28;19919;-85
2021/12/07 12:12:25;;;;;;;;;;;10.30;99.90;;;;;;5065626;28;20068;-83
2021/12/07 12:15:02;;;;;;;;;;;10.30;99.90;;;;;;5084913;28;19912;-86
2021/12/07 12:17:34;;;;;;;;;;;10.30;99.90;;;;;;5084274;28;19912;-84
2021/12/07 12:20:18;;;;;;;;;;;10.30;99.90;;;;;;5084779;28;19915;-82
2021/12/07 12:22:51;;;;;;;;;;;10.40;99.90;;;;;;5065059;28;20361;-82
2021/12/07 12:25:19;;;;;;;;;;;10.40;99.90;;;;;;5085573;28;19920;-83
2021/12/07 12:27:46;;;;;;;;;;;10.40;99.90;;;;;;5095866;28;20403;-81
2021/12/07 12:30:22;;;;;;;;;;;10.40;99.90;;;;;;5077813;28;19908;-82
2021/12/07 12:32:53;;;;;;;;;;;10.50;99.90;;;;;;5096489;28;20311;-84
2021/12/07 12:35:25;;;;;;;;;;;10.50;99.90;;;;;;5077501;28;19914;-82
2021/12/07 12:37:50;;;;;;;;;;;10.50;99.90;;;;;;5096448;28;20314;-83
2021/12/07 12:40:24;;;;;;;;;;;10.50;99.90;;;;;;5095695;28;20020;-82
2021/12/07 12:42:51;;;;;;;;;;;10.50;99.90;;;;;;5077359;28;19908;-82
2021/12/07 12:45:31;;;;;;;;;;;10.50;99.90;;;;;;5096310;28;20269;-82
2021/12/07 12:48:02;;;;;;;;;;;10.40;99.90;;;;;;5095547;28;19919;-85
2021/12/07 12:50:46;;;;;;;;;;;10.40;99.90;;;;;;5077593;28;20003;-86
2021/12/07 12:53:16;;;;;;;;;;;10.40;99.90;;;;;;5096201;28;19908;-86
2021/12/07 12:55:44;;;;;;;;;;;10.50;99.90;;;;;;5077696;28;20433;-85
2021/12/07 12:58:12;;;;;;;;;;;10.50;99.90;;;;;;5077280;28;19999;-84
2021/12/07 13:00:57;;;;;;;;;;;10.60;99.90;;;;;;5077271;28;19908;-82
2021/12/07 13:03:23;;;;;;;;;;;10.60;99.90;;;;;;5053953;28;19908;-82
2021/12/07 13:06:00;;;;;;;;;;;10.60;99.90;;;;;;5095285;28;19999;-83
2021/12/07 13:08:26;;;;;;;;;;;10.50;99.90;;;;;;5095113;28;19919;-82
2021/12/07 13:11:00;;;;;;;;;;;10.60;99.90;;;;;;5094986;28;19947;-84
2021/12/07 13:13:36;;;;;;;;;;;10.50;99.90;;;;;;5095466;28;19915;-81
2021/12/07 13:16:19;;;;;;;;;;;10.60;99.90;;;;;;5076982;28;19916;-83
2021/12/07 13:18:45;;;;;;;;;;;10.60;99.90;;;;;;5095693;28;19947;-84
2021/12/07 13:21:37;;;;;;;;;;;10.60;99.90;;;;;;5076874;28;19962;-84
2021/12/07 13:24:08;;;;;;;;;;;10.60;99.90;;;;;;5090760;28;20372;-82
2021/12/07 13:26:35;;;;;;;;;;;10.70;99.90;;;;;;5095094;28;20425;-83
2021/12/07 13:29:10;;;;;;;;;;;10.70;99.90;;;;;;5076617;28;19912;-83
2021/12/07 13:31:37;;;;;;;;;;;10.80;99.90;;;;;;5094750;28;19908;-81
2021/12/07 13:34:03;;;;;;;;;;;10.70;99.90;;;;;;5094954;28;19954;-84
2021/12/07 13:36:38;;;;;;;;;;;10.80;99.90;;;;;;5076350;28;19914;-83
2021/12/07 13:39:07;;;;;;;;;;;10.80;99.90;;;;;;5076380;28;19912;-81
2021/12/07 13:41:33;;;;;;;;;;;10.90;99.90;;;;;;5094820;28;19955;-79
2021/12/07 13:43:59;;;;;;;;;;;11.00;99.90;;;;;;5094431;28;20006;-80
2021/12/07 13:46:27;;;;;;;;;;;10.90;99.90;;;;;;5094451;28;19947;-81
2021/12/07 13:49:01;;;;;;;;;;;10.90;99.90;;;;;;5094393;28;19991;-84
2021/12/07 13:51:27;;;;;;;;;;;10.80;99.90;;;;;;5094847;28;19915;-81
2021/12/07 13:53:53;;;;;;;;;;;10.90;99.90;;;;;;5076250;28;19908;-84
2021/12/07 13:56:18;;;;;;;;;;;10.80;99.90;;;;;;5094935;28;19908;-82
2021/12/07 13:58:58;;;;;;;;;;;10.90;99.90;;;;;;5094317;28;19950;-81
2021/12/07 14:01:25;;;;;;;;;;;10.90;99.90;;;;;;5094344;28;19908;-82
2021/12/07 14:03:50;;;;;;;;;;;10.80;99.90;;;;;;5094445;28;19908;-82
2021/12/07 14:06:16;;;;;;;;;;;10.80;99.90;;;;;;5076022;28;19916;-84
2021/12/07 14:08:42;;;;;;;;;;;10.80;99.90;;;;;;5094047;28;20013;-80
2021/12/07 14:11:10;;;;;;;;;;;11.00;99.90;;;;;;5094071;28;20392;-83
2021/12/07 14:13:39;;;;;;;;;;;11.10;99.90;;;;;;5094336;28;19908;-80
2021/12/07 14:16:05;;;;;;;;;;;11.10;99.90;;;;;;5094036;28;19908;-81
2021/12/07 14:18:35;;;;;;;;;;;11.10;99.90;;;;;;5075889;28;19961;-83
2021/12/07 14:21:01;;;;;;;;;;;11.00;99.90;;;;;;5075882;28;19908;-82
2021/12/07 14:23:34;;;;;;;;;;;11.00;99.90;;;;;;5094768;28;20269;-83
2021/12/07 14:26:11;;;;;;;;;;;11.00;99.90;;;;;;5075439;28;19908;-83
2021/12/07 14:28:41;;;;;;;;;;;11.00;99.90;;;;;;5094431;28;19981;-83
2021/12/07 14:31:10;;;;;;;;;;;10.50;99.90;;;;;;5093889;28;19912;-84
2021/12/07 14:33:37;;;;;;;;;;;9.70;99.90;;;;;;5093858;28;19908;-84
2021/12/07 14:36:03;;;;;;;;;;;9.70;99.90;;;;;;5093820;28;19909;-81
2021/12/07 14:38:32;;;;;;;;;;;9.60;99.90;;;;;;5093770;28;19966;-82
2021/12/07 14:41:06;;;;;;;;;;;9.60;99.90;;;;;;5093659;28;19970;-82
2021/12/07 14:43:32;;;;;;;;;;;9.70;99.90;;;;;;5093764;28;19931;-84
2021/12/07 14:45:59;;;;;;;;;;;9.80;99.90;;;;;;5075607;28;19912;-84
2021/12/07 14:48:24;;;;;;;;;;;9.90;99.90;;;;;;5077208;28;19912;-82
2021/12/07 14:50:50;;;;;;;;;;;10.10;99.90;;;;;;5097846;28;19908;-83
2021/12/07 14:53:15;;;;;;;;;;;10.30;99.90;;;;;;5097911;28;19909;-84
2021/12/07 14:55:41;;;;;;;;;;;10.70;99.90;;;;;;5079649;28;19943;-83
2021/12/07 14:58:07;;;;;;;;;;;11.60;99.90;;;;;;5079545;28;20395;-82
2021/12/07 15:00:33;;;;;;;;;;;11.30;99.90;;;;;;5098297;28;20365;-83
2021/12/07 15:02:58;;;;;;;;;;;11.10;99.90;;;;;;5097921;28;19947;-82
2021/12/07 15:05:24;;;;;;;;;;;11.30;99.90;;;;;;5097621;28;19961;-83
2021/12/07 15:07:52;;;;;;;;;;;11.50;99.90;;;;;;5097704;28;19919;-83
2021/12/07 15:10:17;;;;;;;;;;;11.70;99.90;;;;;;5079305;28;19977;-81
2021/12/07 15:12:44;;;;;;;;;;;12.10;99.90;;;;;;5097047;28;19920;-81
2021/12/07 15:15:10;;;;;;;;;;;11.80;99.90;;;;;;5097420;28;20394;-80
2021/12/07 15:17:36;;;;;;;;;;;12.10;99.90;;;;;;5097675;28;19915;-82
2021/12/07 15:20:04;;;;;;;;;;;11.80;99.90;;;;;;5079169;28;20442;-80
2021/12/07 15:22:30;;;;;;;;;;;11.60;99.90;;;;;;5097293;28;19914;-83
2021/12/07 15:24:56;;;;;;;;;;;11.90;99.90;;;;;;5097272;28;20003;-82
2021/12/07 15:27:22;;;;;;;;;;;12.00;99.90;;;;;;5097136;28;19915;-82
2021/12/07 15:29:52;;;;;;;;;;;11.40;99.90;;;;;;5097432;28;19908;-82
2021/12/07 15:32:18;;;;;;;;;;;11.40;99.90;;;;;;5097371;28;19908;-82
2021/12/07 15:34:45;;;;;;;;;;;11.00;99.90;;;;;;5078875;28;19916;-81
2021/12/07 15:37:11;;;;;;;;;;;10.90;99.90;;;;;;5097378;28;19908;-80
2021/12/07 15:39:37;;;;;;;;;;;10.80;99.90;;;;;;5096907;28;20292;-80
2021/12/07 15:42:05;;;;;;;;;;;10.40;99.90;;;;;;5097321;28;20061;-81
2021/12/07 15:44:32;;;;;;;;;;;10.30;99.90;;;;;;5097035;28;19915;-81
2021/12/07 15:47:06;;;;;;;;;;;10.10;99.90;;;;;;5096828;28;19918;-80
2021/12/07 15:49:33;;;;;;;;;;;10.10;99.90;;;;;;5096787;28;20440;-81
2021/12/07 15:52:02;;;;;;;;;;;9.80;99.90;;;;;;5096768;28;19912;-81
2021/12/07 15:54:27;;;;;;;;;;;9.80;99.90;;;;;;5097012;28;19908;-82
2021/12/07 15:57:01;;;;;;;;;;;9.70;99.90;;;;;;5096889;28;20283;-81
2021/12/07 15:59:27;;;;;;;;;;;9.50;99.90;;;;;;5095201;28;20376;-78
2021/12/07 16:01:53;;;;;;;;;;;9.40;99.90;;;;;;5096858;28;19914;-80
2021/12/07 16:04:26;;;;;;;;;;;9.40;99.90;;;;;;5096513;28;20292;-82
2021/12/07 16:06:52;;;;;;;;;;;9.40;99.90;;;;;;5096463;28;19922;-80